Time;durP1;ratioP1;P1;durP2;ratioP2;P2;SDS_P1;SDS_P2;PMS_P1;PMS_P2;Temp;Humidity;BMP_temperature;BMP_pressure;BME280_temperature;BME280_humidity;BME280_pressure;Samples;Min_cycle;Max_cycle;Signal;HPM_P1;HPM_P2
2023/08/18 00:03:29;;;;;;;6.03;3.20;;;;;;;;;;10373065;28;20050;-50
2023/08/18 00:08:29;;;;;;;3.15;2.92;;;;;;;;;;10373239;28;21041;-49
2023/08/18 00:13:29;;;;;;;3.70;2.60;;;;;;;;;;10372575;28;20022;-49
2023/08/18 00:18:30;;;;;;;3.10;2.83;;;;;;;;;;10372431;28;20979;-52
2023/08/18 00:23:30;;;;;;;3.30;3.00;;;;;;;;;;10372704;28;20030;-48
2023/08/18 00:28:31;;;;;;;5.77;2.93;;;;;;;;;;10371803;28;20032;-51
2023/08/18 00:33:31;;;;;;;3.47;2.87;;;;;;;;;;10372090;28;20507;-49
2023/08/18 00:38:31;;;;;;;3.40;3.08;;;;;;;;;;10371620;28;20046;-49
2023/08/18 00:43:32;;;;;;;3.77;2.70;;;;;;;;;;10371416;28;20026;-48
2023/08/18 00:48:32;;;;;;;3.37;2.70;;;;;;;;;;10371717;28;20443;-55
2023/08/18 00:53:33;;;;;;;4.93;2.90;;;;;;;;;;10371170;28;20432;-48
2023/08/18 00:58:36;;;;;;;4.63;2.63;;;;;;;;;;10370884;28;20436;-48
2023/08/18 01:03:37;;;;;;;2.97;2.65;;;;;;;;;;10371183;28;20028;-50
2023/08/18 01:08:37;;;;;;;2.90;2.60;;;;;;;;;;10370522;28;20389;-57
2023/08/18 01:14:29;;;;;;;3.80;2.22;;;;;;;;;;10368232;28;20116;-58
2023/08/18 01:19:30;;;;;;;2.42;2.22;;;;;;;;;;10352791;28;20042;-48
2023/08/18 01:24:30;;;;;;;4.15;2.63;;;;;;;;;;10370751;28;20038;-49
2023/08/18 01:29:31;;;;;;;2.60;2.40;;;;;;;;;;10369633;28;20044;-49
2023/08/18 01:34:33;;;;;;;2.80;2.50;;;;;;;;;;10370136;28;20026;-48
2023/08/18 01:39:34;;;;;;;4.25;2.40;;;;;;;;;;10368806;28;20839;-49
2023/08/18 01:44:34;;;;;;;2.53;2.33;;;;;;;;;;10368841;28;20029;-48
2023/08/18 01:49:35;;;;;;;2.72;2.53;;;;;;;;;;10368960;28;20281;-50
2023/08/18 01:54:35;;;;;;;5.50;2.60;;;;;;;;;;10367927;28;20025;-48
2023/08/18 01:59:35;;;;;;;2.30;2.10;;;;;;;;;;10368722;28;20424;-49
2023/08/18 02:04:36;;;;;;;5.57;2.53;;;;;;;;;;10368529;28;20105;-50
2023/08/18 02:09:37;;;;;;;3.53;2.57;;;;;;;;;;10368575;28;20482;-49
2023/08/18 02:14:37;;;;;;;2.58;2.38;;;;;;;;;;10368112;28;20115;-50
2023/08/18 02:19:38;;;;;;;2.50;2.23;;;;;;;;;;10368143;28;20091;-51
2023/08/18 02:24:38;;;;;;;2.70;2.30;;;;;;;;;;10367795;28;20879;-50
2023/08/18 02:29:38;;;;;;;2.57;2.33;;;;;;;;;;10368425;28;20026;-51
2023/08/18 02:34:39;;;;;;;2.60;2.07;;;;;;;;;;10368256;28;20942;-49
2023/08/18 02:39:39;;;;;;;4.33;2.30;;;;;;;;;;10367517;28;20053;-49
2023/08/18 02:44:40;;;;;;;2.40;2.20;;;;;;;;;;10367486;28;20529;-48
2023/08/18 02:49:40;;;;;;;2.63;2.40;;;;;;;;;;10368012;28;20030;-52
2023/08/18 02:54:40;;;;;;;1.90;1.80;;;;;;;;;;10374115;28;20509;-52
2023/08/18 02:59:41;;;;;;;2.13;1.93;;;;;;;;;;10375585;28;20029;-50
2023/08/18 03:04:41;;;;;;;2.10;1.90;;;;;;;;;;10375335;28;20455;-48
2023/08/18 03:09:42;;;;;;;2.00;1.90;;;;;;;;;;10375224;28;20378;-51
2023/08/18 03:14:42;;;;;;;2.13;2.00;;;;;;;;;;10374886;28;20429;-48
2023/08/18 03:19:43;;;;;;;2.13;1.93;;;;;;;;;;10374795;28;20088;-48
2023/08/18 03:24:43;;;;;;;2.33;1.77;;;;;;;;;;10374399;28;20471;-49
2023/08/18 03:29:44;;;;;;;1.80;1.70;;;;;;;;;;10374331;28;20818;-51
2023/08/18 03:34:44;;;;;;;2.70;2.27;;;;;;;;;;10374061;28;20481;-50
2023/08/18 03:39:44;;;;;;;2.37;1.90;;;;;;;;;;10373760;28;20148;-50
2023/08/18 03:44:45;;;;;;;1.97;1.80;;;;;;;;;;10374079;28;20033;-50
2023/08/18 03:49:45;;;;;;;2.55;2.17;;;;;;;;;;10373556;28;20443;-50
2023/08/18 03:54:46;;;;;;;2.00;1.80;;;;;;;;;;10373392;28;20029;-50
2023/08/18 03:59:47;;;;;;;2.25;1.77;;;;;;;;;;10373532;28;20022;-51
2023/08/18 04:04:48;;;;;;;2.25;2.05;;;;;;;;;;10372865;28;20496;-48
2023/08/18 04:09:48;;;;;;;2.25;1.52;;;;;;;;;;10372969;28;20405;-50
2023/08/18 04:14:48;;;;;;;1.63;1.53;;;;;;;;;;10373128;28;20026;-52
2023/08/18 04:19:49;;;;;;;2.80;1.80;;;;;;;;;;10372526;28;20428;-49
2023/08/18 04:24:49;;;;;;;2.20;2.00;;;;;;;;;;10372613;28;20626;-48
2023/08/18 04:29:50;;;;;;;2.10;1.77;;;;;;;;;;10372467;28;20029;-48
2023/08/18 04:34:50;;;;;;;2.50;2.07;;;;;;;;;;10371836;28;20026;-51
2023/08/18 04:39:52;;;;;;;1.80;1.70;;;;;;;;;;10371653;28;20057;-48
2023/08/18 04:44:52;;;;;;;1.88;1.70;;;;;;;;;;10371250;28;20033;-49
2023/08/18 04:49:52;;;;;;;5.97;1.70;;;;;;;;;;10371286;28;20030;-51
2023/08/18 04:54:53;;;;;;;2.33;2.13;;;;;;;;;;10370995;28;20444;-50
2023/08/18 04:59:53;;;;;;;1.77;1.67;;;;;;;;;;10370787;28;20749;-51
2023/08/18 05:04:54;;;;;;;4.23;1.80;;;;;;;;;;10370638;28;20037;-49
2023/08/18 05:09:54;;;;;;;1.40;1.20;;;;;;;;;;10370518;28;21012;-49
2023/08/18 05:14:54;;;;;;;2.17;1.57;;;;;;;;;;10369296;28;20452;-50
2023/08/18 05:19:55;;;;;;;3.23;2.00;;;;;;;;;;10370185;28;20057;-48
2023/08/18 05:24:56;;;;;;;4.85;1.67;;;;;;;;;;10369272;28;20550;-49
2023/08/18 05:29:57;;;;;;;2.67;2.13;;;;;;;;;;10369228;28;20447;-63
2023/08/18 05:34:57;;;;;;;3.83;2.67;;;;;;;;;;10370589;28;20018;-60
2023/08/18 05:39:58;;;;;;;6.13;3.88;;;;;;;;;;10368710;28;20054;-58
2023/08/18 05:44:58;;;;;;;7.53;4.33;;;;;;;;;;10368801;28;20042;-63
2023/08/18 05:50:11;;;;;;;8.20;4.72;;;;;;;;;;10492551;27;20624;-63
2023/08/18 05:55:11;;;;;;;8.75;4.20;;;;;;;;;;10490021;28;20120;-64
2023/08/18 06:00:13;;;;;;;7.57;4.10;;;;;;;;;;10485706;28;20123;-64
2023/08/18 06:05:13;;;;;;;6.57;3.85;;;;;;;;;;10485246;28;20016;-63
2023/08/18 06:10:14;;;;;;;9.73;3.83;;;;;;;;;;10485225;28;20016;-48
2023/08/18 06:15:16;;;;;;;9.37;3.50;;;;;;;;;;10484727;28;20027;-64
2023/08/18 06:20:17;;;;;;;4.82;3.60;;;;;;;;;;10484603;28;20430;-61
2023/08/18 06:25:17;;;;;;;11.17;3.70;;;;;;;;;;10484311;28;20024;-61
2023/08/18 06:30:17;;;;;;;5.90;3.43;;;;;;;;;;10484491;28;20028;-63
2023/08/18 06:35:18;;;;;;;4.60;3.33;;;;;;;;;;10484295;28;20086;-65
2023/08/18 06:40:18;;;;;;;5.20;3.50;;;;;;;;;;10484054;28;20774;-63
2023/08/18 06:45:19;;;;;;;4.17;3.03;;;;;;;;;;10483329;28;20028;-65
2023/08/18 06:50:19;;;;;;;4.73;3.17;;;;;;;;;;10483532;28;20108;-65
2023/08/18 06:55:20;;;;;;;6.10;3.15;;;;;;;;;;10483703;28;20028;-64
2023/08/18 07:00:20;;;;;;;5.75;3.00;;;;;;;;;;10461826;28;20029;-65
2023/08/18 07:05:23;;;;;;;4.80;2.80;;;;;;;;;;10456043;28;20021;-65
2023/08/18 07:10:23;;;;;;;4.55;2.88;;;;;;;;;;10455182;28;20431;-56
2023/08/18 07:15:23;;;;;;;5.23;2.87;;;;;;;;;;10455237;28;20317;-52
2023/08/18 07:20:24;;;;;;;6.23;3.17;;;;;;;;;;10454715;28;20450;-57
2023/08/18 07:25:24;;;;;;;5.10;2.50;;;;;;;;;;10454880;28;20510;-53
2023/08/18 07:30:25;;;;;;;3.28;2.60;;;;;;;;;;10454284;28;20396;-56
2023/08/18 07:35:25;;;;;;;3.83;2.70;;;;;;;;;;10454024;28;20029;-57
2023/08/18 07:40:27;;;;;;;3.55;2.70;;;;;;;;;;10454098;28;20026;-57
2023/08/18 07:45:27;;;;;;;3.60;2.63;;;;;;;;;;10453015;28;20527;-54
2023/08/18 07:50:28;;;;;;;2.70;2.33;;;;;;;;;;10454090;28;20107;-56
2023/08/18 07:55:29;;;;;;;6.43;2.67;;;;;;;;;;10453249;28;20775;-56
2023/08/18 08:00:30;;;;;;;3.22;2.33;;;;;;;;;;10453386;28;20488;-55
2023/08/18 08:05:32;;;;;;;6.55;3.08;;;;;;;;;;10453357;28;20108;-54
2023/08/18 08:10:33;;;;;;;4.10;2.60;;;;;;;;;;10451814;28;20036;-57
2023/08/18 08:15:33;;;;;;;3.72;2.42;;;;;;;;;;10452881;28;20037;-56
2023/08/18 08:20:34;;;;;;;2.87;2.43;;;;;;;;;;10451733;28;20504;-56
2023/08/18 08:25:34;;;;;;;3.13;2.28;;;;;;;;;;10451035;28;20195;-55
2023/08/18 08:30:35;;;;;;;3.15;2.30;;;;;;;;;;10451480;28;20029;-55
2023/08/18 08:35:35;;;;;;;2.73;2.20;;;;;;;;;;10452004;28;20029;-55
2023/08/18 08:40:36;;;;;;;3.07;2.20;;;;;;;;;;10451437;28;20807;-55
2023/08/18 08:45:38;;;;;;;4.47;2.50;;;;;;;;;;10451005;28;20464;-56
2023/08/18 08:50:41;;;;;;;3.97;2.67;;;;;;;;;;10451672;28;20025;-57
2023/08/18 08:55:42;;;;;;;2.75;2.30;;;;;;;;;;10449598;28;20059;-53
2023/08/18 09:00:44;;;;;;;5.15;2.45;;;;;;;;;;10451002;28;20029;-54
2023/08/18 09:05:44;;;;;;;3.70;2.30;;;;;;;;;;10450378;28;20535;-55
2023/08/18 09:10:45;;;;;;;4.17;2.43;;;;;;;;;;10450303;28;20103;-54
2023/08/18 09:15:47;;;;;;;2.50;2.10;;;;;;;;;;10449950;28;20037;-54
2023/08/18 09:20:48;;;;;;;2.25;2.00;;;;;;;;;;10450200;28;20021;-56
2023/08/18 09:25:49;;;;;;;4.53;2.27;;;;;;;;;;10449706;28;20114;-53
2023/08/18 09:30:50;;;;;;;2.10;1.90;;;;;;;;;;10449778;28;20029;-56
2023/08/18 09:35:57;;;;;;;2.65;2.13;;;;;;;;;;10449588;28;20489;-56
2023/08/18 09:40:58;;;;;;;3.60;2.28;;;;;;;;;;10449525;28;20070;-56
2023/08/18 09:45:59;;;;;;;2.45;2.20;;;;;;;;;;10449264;28;20497;-57
2023/08/18 09:51:00;;;;;;;3.85;2.33;;;;;;;;;;10448041;28;20025;-54
2023/08/18 09:56:12;;;;;;;2.55;2.17;;;;;;;;;;10449249;28;20032;-55
2023/08/18 10:01:13;;;;;;;4.78;2.63;;;;;;;;;;10448354;28;20037;-52
2023/08/18 10:06:16;;;;;;;3.78;2.38;;;;;;;;;;10447695;28;20040;-55
2023/08/18 10:11:16;;;;;;;2.80;2.20;;;;;;;;;;10448907;28;20028;-55
2023/08/18 10:16:18;;;;;;;3.20;2.00;;;;;;;;;;10448364;28;20032;-51
2023/08/18 10:21:18;;;;;;;2.92;2.22;;;;;;;;;;10449112;28;20025;-57
2023/08/18 10:26:19;;;;;;;4.03;2.08;;;;;;;;;;10447322;28;20028;-53
2023/08/18 10:31:20;;;;;;;3.70;2.17;;;;;;;;;;10448555;28;20035;-55
2023/08/18 10:36:22;;;;;;;2.67;2.00;;;;;;;;;;10455263;28;20059;-56
2023/08/18 10:41:25;;;;;;;3.00;2.20;;;;;;;;;;10456117;28;20024;-53
2023/08/18 10:46:36;;;;;;;2.80;2.22;;;;;;;;;;10455963;28;20045;-56
2023/08/18 10:51:36;;;;;;;3.33;2.30;;;;;;;;;;10455790;28;20381;-56
2023/08/18 10:56:36;;;;;;;3.77;2.37;;;;;;;;;;10455512;28;20029;-55
2023/08/18 11:01:37;;;;;;;2.47;2.27;;;;;;;;;;10455947;28;20437;-55
2023/08/18 11:06:37;;;;;;;2.65;2.15;;;;;;;;;;10455001;28;20037;-53
2023/08/18 11:11:38;;;;;;;4.17;2.30;;;;;;;;;;10455038;28;20183;-54
2023/08/18 11:16:38;;;;;;;2.78;2.10;;;;;;;;;;10455275;28;20108;-55
2023/08/18 11:21:39;;;;;;;2.63;2.33;;;;;;;;;;10454189;28;20395;-55
2023/08/18 11:26:39;;;;;;;2.50;2.10;;;;;;;;;;10454269;28;20086;-55
2023/08/18 11:31:40;;;;;;;3.28;2.38;;;;;;;;;;10454455;28;20465;-52
2023/08/18 11:36:40;;;;;;;2.47;2.27;;;;;;;;;;10454479;28;20032;-51
2023/08/18 11:41:44;;;;;;;3.97;2.83;;;;;;;;;;10454231;28;20104;-53
2023/08/18 11:46:45;;;;;;;3.72;2.47;;;;;;;;;;10453222;28;20049;-51
2023/08/18 11:51:55;;;;;;;3.15;2.33;;;;;;;;;;10453181;28;20036;-55
2023/08/18 11:56:57;;;;;;;2.67;2.38;;;;;;;;;;10453676;28;20025;-56
2023/08/18 12:01:58;;;;;;;4.00;2.65;;;;;;;;;;10452999;28;20388;-55
2023/08/18 12:06:58;;;;;;;4.25;3.00;;;;;;;;;;10452534;28;20083;-56
2023/08/18 12:11:59;;;;;;;3.47;2.53;;;;;;;;;;10452642;28;20025;-55
2023/08/18 12:16:59;;;;;;;2.87;2.40;;;;;;;;;;10452313;28;20112;-62
2023/08/18 12:21:59;;;;;;;3.17;2.50;;;;;;;;;;10452314;28;20029;-64
2023/08/18 12:27:00;;;;;;;2.83;2.60;;;;;;;;;;10451911;28;20124;-64
2023/08/18 12:32:01;;;;;;;2.72;2.40;;;;;;;;;;10451702;28;20037;-64
2023/08/18 12:37:01;;;;;;;2.77;2.57;;;;;;;;;;10452094;28;20079;-64
2023/08/18 12:42:02;;;;;;;8.93;2.65;;;;;;;;;;10450280;28;20484;-64
2023/08/18 12:47:03;;;;;;;3.10;2.67;;;;;;;;;;10450865;28;20495;-65
2023/08/18 12:52:03;;;;;;;2.50;2.30;;;;;;;;;;10449652;28;20466;-61
2023/08/18 12:57:04;;;;;;;3.35;2.38;;;;;;;;;;10450187;28;20021;-65
2023/08/18 13:02:04;;;;;;;2.80;2.60;;;;;;;;;;10450575;28;20032;-63
2023/08/18 13:07:05;;;;;;;3.10;2.53;;;;;;;;;;10450788;28;20549;-63
2023/08/18 13:12:06;;;;;;;3.50;2.53;;;;;;;;;;10450251;28;20790;-54
2023/08/18 13:17:08;;;;;;;3.05;2.80;;;;;;;;;;10449933;28;20487;-63
2023/08/18 13:22:08;;;;;;;3.10;2.80;;;;;;;;;;10450514;28;20036;-64
2023/08/18 13:27:09;;;;;;;2.97;2.63;;;;;;;;;;10450189;28;20048;-64
2023/08/18 13:32:09;;;;;;;2.80;2.47;;;;;;;;;;10449693;28;20036;-63
2023/08/18 13:37:10;;;;;;;3.10;2.80;;;;;;;;;;10449586;28;20029;-63
2023/08/18 13:42:10;;;;;;;3.40;2.60;;;;;;;;;;10449864;28;20112;-64
2023/08/18 13:47:10;;;;;;;3.67;2.90;;;;;;;;;;10449130;28;20041;-63
2023/08/18 13:52:11;;;;;;;3.37;2.73;;;;;;;;;;10449961;28;20029;-65
2023/08/18 13:57:11;;;;;;;3.83;2.87;;;;;;;;;;10449840;28;20088;-64
2023/08/18 14:02:11;;;;;;;3.10;2.80;;;;;;;;;;10449409;28;20025;-64
2023/08/18 14:07:12;;;;;;;3.17;2.87;;;;;;;;;;10449924;28;20357;-65
2023/08/18 14:12:12;;;;;;;3.00;2.80;;;;;;;;;;10457932;28;20969;-56
2023/08/18 14:17:36;;;;;;;2.97;2.70;;;;;;;;;;10457661;28;20100;-55
2023/08/18 14:22:36;;;;;;;2.75;2.55;;;;;;;;;;10457262;28;20036;-52
2023/08/18 14:27:37;;;;;;;2.83;2.57;;;;;;;;;;10457374;28;20044;-56
2023/08/18 14:32:38;;;;;;;3.28;2.97;;;;;;;;;;10456783;28;20139;-57
2023/08/18 14:37:38;;;;;;;4.28;3.10;;;;;;;;;;10457010;28;20050;-56
2023/08/18 14:42:39;;;;;;;3.23;2.93;;;;;;;;;;10456461;28;20495;-55
2023/08/18 14:47:39;;;;;;;2.87;2.67;;;;;;;;;;10456188;28;20496;-57
2023/08/18 14:52:40;;;;;;;3.10;2.87;;;;;;;;;;10456160;28;20430;-55
2023/08/18 14:57:40;;;;;;;2.90;2.60;;;;;;;;;;10455869;28;20025;-55
2023/08/18 15:02:40;;;;;;;3.20;3.00;;;;;;;;;;10456158;28;20051;-53
2023/08/18 15:07:41;;;;;;;2.60;2.40;;;;;;;;;;10455897;28;20457;-55
2023/08/18 15:12:41;;;;;;;2.93;2.70;;;;;;;;;;10455539;28;20440;-55
2023/08/18 15:17:41;;;;;;;3.57;3.10;;;;;;;;;;10455011;28;20039;-57
2023/08/18 15:22:42;;;;;;;3.80;2.90;;;;;;;;;;10454646;28;20115;-55
2023/08/18 15:27:47;;;;;;;3.00;2.53;;;;;;;;;;10454598;28;20094;-54
2023/08/18 15:32:47;;;;;;;4.00;3.22;;;;;;;;;;10454709;28;20029;-56
2023/08/18 15:37:49;;;;;;;3.43;3.13;;;;;;;;;;10454444;28;20020;-57
2023/08/18 15:42:50;;;;;;;3.60;2.92;;;;;;;;;;10454751;28;20100;-56
2023/08/18 15:47:50;;;;;;;3.30;3.00;;;;;;;;;;10453817;28;20071;-55
2023/08/18 15:52:51;;;;;;;3.60;3.23;;;;;;;;;;10454092;28;20086;-56
2023/08/18 15:57:51;;;;;;;4.03;3.08;;;;;;;;;;10454228;28;20028;-55
2023/08/18 16:02:51;;;;;;;3.13;2.80;;;;;;;;;;10454030;28;20021;-55
2023/08/18 16:07:52;;;;;;;3.73;3.10;;;;;;;;;;10453342;28;20441;-57
2023/08/18 16:12:52;;;;;;;4.70;3.17;;;;;;;;;;10453560;28;20029;-56
2023/08/18 16:17:55;;;;;;;4.33;3.10;;;;;;;;;;10453336;28;20116;-57
2023/08/18 16:22:55;;;;;;;3.35;3.05;;;;;;;;;;10453199;28;20583;-55
2023/08/18 16:27:55;;;;;;;3.20;2.90;;;;;;;;;;10452418;28;20163;-56
2023/08/18 16:32:56;;;;;;;3.13;2.90;;;;;;;;;;10451338;28;20108;-54
2023/08/18 16:37:56;;;;;;;2.90;2.70;;;;;;;;;;10452524;28;20021;-57
2023/08/18 16:42:57;;;;;;;4.20;3.07;;;;;;;;;;10451781;28;20108;-58
2023/08/18 16:47:57;;;;;;;3.85;3.13;;;;;;;;;;10451379;28;20124;-56
2023/08/18 16:52:58;;;;;;;4.25;3.20;;;;;;;;;;10451511;28;20078;-55
2023/08/18 16:57:58;;;;;;;3.43;3.13;;;;;;;;;;10451372;28;20033;-56
2023/08/18 17:02:58;;;;;;;3.43;3.17;;;;;;;;;;10451184;28;20021;-55
2023/08/18 17:07:59;;;;;;;3.03;2.80;;;;;;;;;;10450192;28;20109;-55
2023/08/18 17:12:59;;;;;;;3.97;3.60;;;;;;;;;;10450332;28;20057;-55
2023/08/18 17:18:00;;;;;;;3.47;3.17;;;;;;;;;;10450256;28;20396;-52
2023/08/18 17:23:00;;;;;;;3.30;3.00;;;;;;;;;;10450419;28;20025;-55
2023/08/18 17:28:02;;;;;;;3.37;2.90;;;;;;;;;;10449681;28;20464;-56
2023/08/18 17:33:03;;;;;;;3.78;2.90;;;;;;;;;;10450438;28;20029;-53
2023/08/18 17:38:03;;;;;;;3.95;3.10;;;;;;;;;;10450276;28;20024;-56
2023/08/18 17:43:04;;;;;;;3.23;2.80;;;;;;;;;;10448977;28;20251;-56
2023/08/18 17:48:06;;;;;;;3.30;3.00;;;;;;;;;;10449228;28;20489;-52
2023/08/18 17:53:06;;;;;;;3.47;3.15;;;;;;;;;;10449137;28;20024;-54
2023/08/18 17:58:07;;;;;;;2.93;2.73;;;;;;;;;;10448160;28;20025;-54
2023/08/18 18:03:07;;;;;;;3.38;3.08;;;;;;;;;;10448348;28;20116;-53
2023/08/18 18:08:11;;;;;;;3.40;3.10;;;;;;;;;;10449097;28;20033;-53
2023/08/18 18:13:12;;;;;;;3.47;3.17;;;;;;;;;;10449196;28;20035;-54
2023/08/18 18:18:13;;;;;;;4.03;3.63;;;;;;;;;;10448156;28;20108;-61
2023/08/18 18:23:14;;;;;;;3.55;3.25;;;;;;;;;;10441132;28;20025;-57
2023/08/18 18:28:14;;;;;;;4.50;3.75;;;;;;;;;;10448687;28;20465;-59
2023/08/18 18:33:15;;;;;;;4.13;3.73;;;;;;;;;;10448719;28;20106;-54
2023/08/18 18:38:15;;;;;;;4.07;3.77;;;;;;;;;;10448526;28;20112;-55
2023/08/18 18:43:15;;;;;;;6.23;5.07;;;;;;;;;;10448642;28;20259;-58
2023/08/18 18:48:16;;;;;;;7.87;4.80;;;;;;;;;;10448046;28;20072;-57
2023/08/18 18:53:16;;;;;;;5.67;4.63;;;;;;;;;;10448763;28;20071;-57
2023/08/18 18:58:17;;;;;;;7.67;4.87;;;;;;;;;;10455828;28;20036;-57
2023/08/18 19:03:17;;;;;;;8.17;5.20;;;;;;;;;;10455704;28;20214;-57
2023/08/18 19:08:18;;;;;;;6.53;4.93;;;;;;;;;;10453831;28;20037;-56
2023/08/18 19:13:18;;;;;;;6.05;5.32;;;;;;;;;;10451503;28;20499;-57
2023/08/18 19:18:19;;;;;;;5.63;5.13;;;;;;;;;;10454110;28;20044;-57
2023/08/18 19:23:19;;;;;;;10.87;6.67;;;;;;;;;;10447891;28;20025;-58
2023/08/18 19:28:19;;;;;;;12.17;7.27;;;;;;;;;;10454753;28;20026;-55
2023/08/18 19:33:20;;;;;;;11.33;7.40;;;;;;;;;;10455094;28;20475;-59
2023/08/18 19:38:20;;;;;;;16.40;7.37;;;;;;;;;;10454117;28;20514;-57
2023/08/18 19:43:21;;;;;;;10.90;6.78;;;;;;;;;;10452593;28;20032;-57
2023/08/18 19:48:21;;;;;;;9.32;7.60;;;;;;;;;;10453607;28;20419;-56
2023/08/18 19:53:23;;;;;;;9.23;7.07;;;;;;;;;;10453600;28;20526;-57
2023/08/18 19:58:23;;;;;;;9.65;7.47;;;;;;;;;;10452818;28;20028;-57
2023/08/18 20:03:24;;;;;;;10.47;7.17;;;;;;;;;;10452479;28;20492;-57
2023/08/18 20:08:24;;;;;;;8.93;6.90;;;;;;;;;;10453071;28;20533;-58
2023/08/18 20:13:25;;;;;;;8.37;6.83;;;;;;;;;;10452674;28;20432;-56
2023/08/18 20:18:25;;;;;;;14.07;6.75;;;;;;;;;;10452319;28;20028;-57
2023/08/18 20:23:25;;;;;;;11.93;7.23;;;;;;;;;;10453078;28;20423;-57
2023/08/18 20:28:26;;;;;;;9.70;7.20;;;;;;;;;;10447946;28;20040;-58
2023/08/18 20:33:26;;;;;;;8.53;7.13;;;;;;;;;;10451971;28;20032;-57
2023/08/18 20:38:27;;;;;;;11.90;6.87;;;;;;;;;;10451746;28;20029;-57
2023/08/18 20:43:27;;;;;;;8.27;7.43;;;;;;;;;;10451542;28;20021;-55
2023/08/18 20:48:29;;;;;;;14.13;7.95;;;;;;;;;;10450546;28;20523;-58
2023/08/18 20:53:29;;;;;;;9.90;7.78;;;;;;;;;;10450244;28;20040;-57
2023/08/18 20:58:30;;;;;;;11.37;7.33;;;;;;;;;;10450942;28;20076;-56
2023/08/18 21:03:30;;;;;;;11.45;7.57;;;;;;;;;;10450572;28;20033;-56
2023/08/18 21:08:31;;;;;;;13.90;7.70;;;;;;;;;;10450464;28;20395;-57
2023/08/18 21:13:31;;;;;;;8.77;7.63;;;;;;;;;;10449057;28;20017;-56
2023/08/18 21:18:32;;;;;;;10.23;7.63;;;;;;;;;;10449900;28;20229;-57
2023/08/18 21:23:35;;;;;;;10.83;7.37;;;;;;;;;;10450726;28;20430;-57
2023/08/18 21:28:36;;;;;;;13.43;6.72;;;;;;;;;;10449908;28;20078;-57
2023/08/18 21:33:37;;;;;;;7.95;7.10;;;;;;;;;;10450243;28;20028;-57
2023/08/18 21:38:37;;;;;;;8.57;7.35;;;;;;;;;;10449987;28;20082;-57
2023/08/18 21:43:37;;;;;;;8.40;7.50;;;;;;;;;;10449748;28;20021;-57
2023/08/18 21:48:38;;;;;;;8.60;6.97;;;;;;;;;;10449447;28;20129;-56
2023/08/18 21:53:38;;;;;;;7.75;6.95;;;;;;;;;;10449581;28;20017;-57
2023/08/18 21:58:38;;;;;;;7.80;6.80;;;;;;;;;;10449433;28;20043;-57
2023/08/18 22:03:39;;;;;;;7.50;6.67;;;;;;;;;;10449311;28;20079;-57
2023/08/18 22:08:39;;;;;;;13.47;6.77;;;;;;;;;;10449185;28;20029;-57
2023/08/18 22:13:40;;;;;;;8.03;7.23;;;;;;;;;;10449316;28;20222;-57
2023/08/18 22:18:40;;;;;;;7.82;6.97;;;;;;;;;;10448812;28;20032;-56
2023/08/18 22:23:41;;;;;;;8.00;6.70;;;;;;;;;;10446948;28;20108;-57
2023/08/18 22:28:41;;;;;;;9.43;6.90;;;;;;;;;;10448696;28;20042;-56
2023/08/18 22:33:42;;;;;;;8.87;6.57;;;;;;;;;;10456538;28;20029;-57
2023/08/18 22:38:42;;;;;;;7.72;6.47;;;;;;;;;;10456204;28;20029;-58
2023/08/18 22:43:43;;;;;;;8.70;6.60;;;;;;;;;;10456370;28;20063;-56
2023/08/18 22:48:43;;;;;;;7.67;6.10;;;;;;;;;;10455632;28;20111;-55
2023/08/18 22:53:43;;;;;;;7.23;6.20;;;;;;;;;;10455960;28;20472;-56
2023/08/18 22:58:44;;;;;;;6.87;5.77;;;;;;;;;;10455184;28;20040;-54
2023/08/18 23:03:44;;;;;;;6.80;5.40;;;;;;;;;;10455747;28;20464;-57
2023/08/18 23:08:45;;;;;;;5.80;5.20;;;;;;;;;;10454797;28;20462;-58
2023/08/18 23:13:45;;;;;;;9.75;5.60;;;;;;;;;;10455220;28;20396;-57
2023/08/18 23:18:45;;;;;;;5.47;4.97;;;;;;;;;;10455389;28;20029;-60
2023/08/18 23:23:46;;;;;;;5.40;4.90;;;;;;;;;;10454359;28;20029;-59
2023/08/18 23:28:46;;;;;;;5.27;4.77;;;;;;;;;;10454693;28;20025;-59
2023/08/18 23:33:47;;;;;;;5.23;4.83;;;;;;;;;;10454250;28;20025;-59
2023/08/18 23:38:47;;;;;;;5.60;4.93;;;;;;;;;;10454665;28;20431;-58
2023/08/18 23:43:47;;;;;;;5.90;5.27;;;;;;;;;;10454210;28;20422;-57
2023/08/18 23:48:49;;;;;;;5.10;4.60;;;;;;;;;;10453839;28;20409;-57
2023/08/18 23:53:49;;;;;;;6.57;5.03;;;;;;;;;;10454011;28;20454;-57
2023/08/18 23:58:50;;;;;;;6.13;4.87;;;;;;;;;;10452003;28;20028;-57
